sensor_id;sensor_type;location;lat;lon;timestamp;P1;durP1;ratioP1;P2;durP2;ratioP2
8399;SDS011;4237;47.030;15.396;2023-07-30T00:00:00;1.43;;;0.93;;
8399;SDS011;4237;47.030;15.396;2023-07-30T00:02:28;1.07;;;0.93;;
8399;SDS011;4237;47.030;15.396;2023-07-30T00:04:56;1.83;;;1.00;;
8399;SDS011;4237;47.030;15.396;2023-07-30T00:07:24;1.23;;;1.00;;
8399;SDS011;4237;47.030;15.396;2023-07-30T00:09:52;1.40;;;1.20;;
8399;SDS011;4237;47.030;15.396;2023-07-30T00:12:20;2.17;;;1.00;;
8399;SDS011;4237;47.030;15.396;2023-07-30T00:14:49;1.57;;;1.30;;
8399;SDS011;4237;47.030;15.396;2023-07-30T00:17:17;1.77;;;1.10;;
8399;SDS011;4237;47.030;15.396;2023-07-30T00:19:45;1.03;;;0.93;;
8399;SDS011;4237;47.030;15.396;2023-07-30T00:22:13;1.10;;;0.83;;
8399;SDS011;4237;47.030;15.396;2023-07-30T00:24:41;2.37;;;0.97;;
8399;SDS011;4237;47.030;15.396;2023-07-30T00:27:09;2.83;;;1.27;;
8399;SDS011;4237;47.030;15.396;2023-07-30T00:29:38;0.70;;;0.70;;
8399;SDS011;4237;47.030;15.396;2023-07-30T00:32:06;1.70;;;1.43;;
8399;SDS011;4237;47.030;15.396;2023-07-30T00:34:34;3.03;;;1.37;;
8399;SDS011;4237;47.030;15.396;2023-07-30T00:37:03;1.33;;;1.10;;
8399;SDS011;4237;47.030;15.396;2023-07-30T00:39:31;1.23;;;1.10;;
8399;SDS011;4237;47.030;15.396;2023-07-30T00:41:59;1.70;;;1.10;;
8399;SDS011;4237;47.030;15.396;2023-07-30T00:44:27;1.20;;;1.10;;
8399;SDS011;4237;47.030;15.396;2023-07-30T00:46:55;0.97;;;0.83;;
8399;SDS011;4237;47.030;15.396;2023-07-30T00:49:24;1.93;;;1.10;;
8399;SDS011;4237;47.030;15.396;2023-07-30T00:51:52;1.30;;;1.10;;
8399;SDS011;4237;47.030;15.396;2023-07-30T00:54:23;2.03;;;1.30;;
8399;SDS011;4237;47.030;15.396;2023-07-30T00:56:52;1.03;;;0.90;;
8399;SDS011;4237;47.030;15.396;2023-07-30T00:59:21;2.10;;;1.20;;
8399;SDS011;4237;47.030;15.396;2023-07-30T01:01:49;1.20;;;0.90;;
8399;SDS011;4237;47.030;15.396;2023-07-30T01:04:19;1.50;;;1.13;;
8399;SDS011;4237;47.030;15.396;2023-07-30T01:06:47;1.10;;;1.00;;
8399;SDS011;4237;47.030;15.396;2023-07-30T01:09:16;1.10;;;1.00;;
8399;SDS011;4237;47.030;15.396;2023-07-30T01:11:44;1.23;;;0.80;;
8399;SDS011;4237;47.030;15.396;2023-07-30T01:14:13;4.13;;;1.10;;
8399;SDS011;4237;47.030;15.396;2023-07-30T01:16:42;1.00;;;0.90;;
8399;SDS011;4237;47.030;15.396;2023-07-30T01:19:10;2.20;;;0.90;;
8399;SDS011;4237;47.030;15.396;2023-07-30T01:21:38;1.37;;;1.10;;
8399;SDS011;4237;47.030;15.396;2023-07-30T01:24:06;3.67;;;1.30;;
8399;SDS011;4237;47.030;15.396;2023-07-30T01:26:44;2.43;;;1.20;;
8399;SDS011;4237;47.030;15.396;2023-07-30T01:29:14;1.60;;;1.10;;
8399;SDS011;4237;47.030;15.396;2023-07-30T01:31:43;1.13;;;1.03;;
8399;SDS011;4237;47.030;15.396;2023-07-30T01:34:11;2.03;;;1.10;;
8399;SDS011;4237;47.030;15.396;2023-07-30T01:36:40;1.87;;;1.00;;
8399;SDS011;4237;47.030;15.396;2023-07-30T01:39:09;1.67;;;1.10;;
8399;SDS011;4237;47.030;15.396;2023-07-30T01:41:38;2.93;;;1.30;;
8399;SDS011;4237;47.030;15.396;2023-07-30T01:44:06;1.73;;;1.33;;
8399;SDS011;4237;47.030;15.396;2023-07-30T01:46:34;1.27;;;1.00;;
8399;SDS011;4237;47.030;15.396;2023-07-30T01:49:02;1.60;;;1.50;;
8399;SDS011;4237;47.030;15.396;2023-07-30T01:51:31;2.80;;;1.40;;
8399;SDS011;4237;47.030;15.396;2023-07-30T01:53:59;3.13;;;1.20;;
8399;SDS011;4237;47.030;15.396;2023-07-30T01:56:27;3.10;;;1.27;;
8399;SDS011;4237;47.030;15.396;2023-07-30T01:58:55;2.40;;;1.30;;
8399;SDS011;4237;47.030;15.396;2023-07-30T02:01:23;2.17;;;1.20;;
8399;SDS011;4237;47.030;15.396;2023-07-30T02:03:51;2.45;;;1.50;;
8399;SDS011;4237;47.030;15.396;2023-07-30T02:06:20;3.40;;;1.90;;
8399;SDS011;4237;47.030;15.396;2023-07-30T02:08:48;1.70;;;1.60;;
8399;SDS011;4237;47.030;15.396;2023-07-30T02:11:16;4.30;;;1.30;;
8399;SDS011;4237;47.030;15.396;2023-07-30T02:13:44;2.20;;;1.35;;
8399;SDS011;4237;47.030;15.396;2023-07-30T02:21:07;1.30;;;1.10;;
8399;SDS011;4237;47.030;15.396;2023-07-30T02:23:35;1.93;;;1.30;;
8399;SDS011;4237;47.030;15.396;2023-07-30T02:26:03;1.47;;;1.30;;
8399;SDS011;4237;47.030;15.396;2023-07-30T02:28:32;2.77;;;1.27;;
8399;SDS011;4237;47.030;15.396;2023-07-30T02:31:00;1.70;;;1.27;;
8399;SDS011;4237;47.030;15.396;2023-07-30T02:33:28;1.40;;;1.30;;
8399;SDS011;4237;47.030;15.396;2023-07-30T02:35:56;1.40;;;1.30;;
8399;SDS011;4237;47.030;15.396;2023-07-30T02:38:24;1.73;;;1.30;;
8399;SDS011;4237;47.030;15.396;2023-07-30T02:40:53;1.70;;;1.20;;
8399;SDS011;4237;47.030;15.396;2023-07-30T02:43:21;1.70;;;1.30;;
8399;SDS011;4237;47.030;15.396;2023-07-30T02:45:49;1.30;;;1.20;;
8399;SDS011;4237;47.030;15.396;2023-07-30T02:48:17;1.10;;;1.00;;
8399;SDS011;4237;47.030;15.396;2023-07-30T02:50:45;2.57;;;1.13;;
8399;SDS011;4237;47.030;15.396;2023-07-30T02:53:14;1.60;;;1.10;;
8399;SDS011;4237;47.030;15.396;2023-07-30T02:55:42;1.90;;;1.30;;
8399;SDS011;4237;47.030;15.396;2023-07-30T02:58:10;1.70;;;1.40;;
8399;SDS011;4237;47.030;15.396;2023-07-30T03:00:38;1.73;;;1.33;;
8399;SDS011;4237;47.030;15.396;2023-07-30T03:03:06;2.27;;;1.30;;
8399;SDS011;4237;47.030;15.396;2023-07-30T03:05:34;1.57;;;1.20;;
8399;SDS011;4237;47.030;15.396;2023-07-30T03:08:03;1.83;;;1.23;;
8399;SDS011;4237;47.030;15.396;2023-07-30T03:10:31;4.10;;;1.20;;
8399;SDS011;4237;47.030;15.396;2023-07-30T03:12:59;0.93;;;0.90;;
8399;SDS011;4237;47.030;15.396;2023-07-30T03:15:27;1.43;;;1.30;;
8399;SDS011;4237;47.030;15.396;2023-07-30T03:17:55;2.00;;;1.10;;
8399;SDS011;4237;47.030;15.396;2023-07-30T03:20:23;4.45;;;1.30;;
8399;SDS011;4237;47.030;15.396;2023-07-30T03:22:52;1.57;;;1.30;;
8399;SDS011;4237;47.030;15.396;2023-07-30T03:25:20;1.80;;;1.20;;
8399;SDS011;4237;47.030;15.396;2023-07-30T03:27:48;4.50;;;1.27;;
8399;SDS011;4237;47.030;15.396;2023-07-30T03:30:16;1.40;;;1.20;;
8399;SDS011;4237;47.030;15.396;2023-07-30T03:32:45;1.67;;;1.20;;
8399;SDS011;4237;47.030;15.396;2023-07-30T03:35:13;2.25;;;1.40;;
8399;SDS011;4237;47.030;15.396;2023-07-30T03:37:41;1.45;;;1.35;;
8399;SDS011;4237;47.030;15.396;2023-07-30T03:40:10;1.60;;;1.50;;
8399;SDS011;4237;47.030;15.396;2023-07-30T03:42:38;2.23;;;1.50;;
8399;SDS011;4237;47.030;15.396;2023-07-30T03:45:06;1.57;;;1.20;;
8399;SDS011;4237;47.030;15.396;2023-07-30T03:47:35;1.90;;;1.60;;
8399;SDS011;4237;47.030;15.396;2023-07-30T03:50:03;1.40;;;1.05;;
8399;SDS011;4237;47.030;15.396;2023-07-30T03:52:32;1.50;;;1.40;;
8399;SDS011;4237;47.030;15.396;2023-07-30T03:55:00;3.57;;;1.33;;
8399;SDS011;4237;47.030;15.396;2023-07-30T03:57:28;2.27;;;1.30;;
8399;SDS011;4237;47.030;15.396;2023-07-30T03:59:56;1.40;;;1.30;;
8399;SDS011;4237;47.030;15.396;2023-07-30T04:02:24;1.57;;;1.47;;
8399;SDS011;4237;47.030;15.396;2023-07-30T04:04:52;1.47;;;1.37;;
8399;SDS011;4237;47.030;15.396;2023-07-30T04:07:21;1.53;;;1.30;;
8399;SDS011;4237;47.030;15.396;2023-07-30T04:09:49;2.33;;;1.53;;
8399;SDS011;4237;47.030;15.396;2023-07-30T04:12:17;2.50;;;1.30;;
8399;SDS011;4237;47.030;15.396;2023-07-30T04:14:46;3.53;;;1.67;;
8399;SDS011;4237;47.030;15.396;2023-07-30T04:17:14;1.50;;;1.20;;
8399;SDS011;4237;47.030;15.396;2023-07-30T04:19:42;2.53;;;1.33;;
8399;SDS011;4237;47.030;15.396;2023-07-30T04:22:11;2.05;;;1.50;;
8399;SDS011;4237;47.030;15.396;2023-07-30T04:24:39;1.60;;;1.50;;
8399;SDS011;4237;47.030;15.396;2023-07-30T04:27:07;1.30;;;1.20;;
8399;SDS011;4237;47.030;15.396;2023-07-30T04:29:35;2.10;;;1.50;;
8399;SDS011;4237;47.030;15.396;2023-07-30T04:32:04;1.63;;;1.20;;
8399;SDS011;4237;47.030;15.396;2023-07-30T04:34:32;2.60;;;1.50;;
8399;SDS011;4237;47.030;15.396;2023-07-30T04:37:00;2.83;;;1.37;;
8399;SDS011;4237;47.030;15.396;2023-07-30T04:39:30;2.73;;;1.27;;
8399;SDS011;4237;47.030;15.396;2023-07-30T04:41:59;1.80;;;1.17;;
8399;SDS011;4237;47.030;15.396;2023-07-30T04:44:27;1.20;;;1.10;;
8399;SDS011;4237;47.030;15.396;2023-07-30T04:46:55;1.50;;;1.40;;
8399;SDS011;4237;47.030;15.396;2023-07-30T04:49:23;0.90;;;0.90;;
8399;SDS011;4237;47.030;15.396;2023-07-30T04:51:52;3.83;;;1.30;;
8399;SDS011;4237;47.030;15.396;2023-07-30T04:54:20;2.00;;;1.20;;
8399;SDS011;4237;47.030;15.396;2023-07-30T04:56:48;2.67;;;1.20;;
8399;SDS011;4237;47.030;15.396;2023-07-30T04:59:16;1.47;;;1.20;;
8399;SDS011;4237;47.030;15.396;2023-07-30T05:01:44;1.77;;;1.20;;
8399;SDS011;4237;47.030;15.396;2023-07-30T05:04:12;1.70;;;1.57;;
8399;SDS011;4237;47.030;15.396;2023-07-30T05:06:41;1.50;;;1.40;;
8399;SDS011;4237;47.030;15.396;2023-07-30T05:09:09;2.07;;;1.27;;
8399;SDS011;4237;47.030;15.396;2023-07-30T05:11:38;1.50;;;1.27;;
8399;SDS011;4237;47.030;15.396;2023-07-30T05:14:07;2.23;;;1.20;;
8399;SDS011;4237;47.030;15.396;2023-07-30T05:16:35;1.77;;;1.27;;
8399;SDS011;4237;47.030;15.396;2023-07-30T05:19:05;1.20;;;1.10;;
8399;SDS011;4237;47.030;15.396;2023-07-30T05:21:33;1.97;;;1.83;;
8399;SDS011;4237;47.030;15.396;2023-07-30T05:24:01;1.33;;;0.97;;
8399;SDS011;4237;47.030;15.396;2023-07-30T05:26:29;1.33;;;1.23;;
8399;SDS011;4237;47.030;15.396;2023-07-30T05:28:57;1.37;;;1.27;;
8399;SDS011;4237;47.030;15.396;2023-07-30T05:31:25;3.73;;;0.90;;
8399;SDS011;4237;47.030;15.396;2023-07-30T05:33:54;1.65;;;1.30;;
8399;SDS011;4237;47.030;15.396;2023-07-30T05:36:22;1.30;;;1.20;;
8399;SDS011;4237;47.030;15.396;2023-07-30T05:38:50;1.37;;;1.17;;
8399;SDS011;4237;47.030;15.396;2023-07-30T05:41:18;2.67;;;1.20;;
8399;SDS011;4237;47.030;15.396;2023-07-30T05:43:48;1.40;;;1.30;;
8399;SDS011;4237;47.030;15.396;2023-07-30T05:46:16;3.63;;;1.20;;
8399;SDS011;4237;47.030;15.396;2023-07-30T05:48:44;1.30;;;1.20;;
8399;SDS011;4237;47.030;15.396;2023-07-30T05:51:13;2.00;;;1.20;;
8399;SDS011;4237;47.030;15.396;2023-07-30T05:53:41;1.00;;;0.90;;
8399;SDS011;4237;47.030;15.396;2023-07-30T05:56:09;1.23;;;1.13;;
8399;SDS011;4237;47.030;15.396;2023-07-30T05:58:39;1.00;;;0.97;;
8399;SDS011;4237;47.030;15.396;2023-07-30T06:01:07;1.30;;;1.10;;
8399;SDS011;4237;47.030;15.396;2023-07-30T06:03:35;2.03;;;1.20;;
8399;SDS011;4237;47.030;15.396;2023-07-30T06:06:04;2.47;;;1.80;;
8399;SDS011;4237;47.030;15.396;2023-07-30T06:08:32;3.45;;;2.00;;
8399;SDS011;4237;47.030;15.396;2023-07-30T06:11:00;2.20;;;1.70;;
8399;SDS011;4237;47.030;15.396;2023-07-30T06:13:30;1.77;;;1.50;;
8399;SDS011;4237;47.030;15.396;2023-07-30T06:15:58;1.90;;;1.60;;
8399;SDS011;4237;47.030;15.396;2023-07-30T06:18:26;1.80;;;1.70;;
8399;SDS011;4237;47.030;15.396;2023-07-30T06:20:55;3.00;;;1.50;;
8399;SDS011;4237;47.030;15.396;2023-07-30T06:23:23;1.93;;;1.63;;
8399;SDS011;4237;47.030;15.396;2023-07-30T06:25:51;1.70;;;1.60;;
8399;SDS011;4237;47.030;15.396;2023-07-30T06:28:19;1.57;;;1.47;;
8399;SDS011;4237;47.030;15.396;2023-07-30T06:30:47;3.70;;;2.10;;
8399;SDS011;4237;47.030;15.396;2023-07-30T06:33:15;1.93;;;1.73;;
8399;SDS011;4237;47.030;15.396;2023-07-30T06:35:44;2.13;;;1.70;;
8399;SDS011;4237;47.030;15.396;2023-07-30T06:38:12;1.70;;;1.60;;
8399;SDS011;4237;47.030;15.396;2023-07-30T06:40:40;2.53;;;1.33;;
8399;SDS011;4237;47.030;15.396;2023-07-30T06:43:08;1.63;;;1.53;;
8399;SDS011;4237;47.030;15.396;2023-07-30T06:45:36;1.90;;;1.60;;
8399;SDS011;4237;47.030;15.396;2023-07-30T06:48:04;2.17;;;1.57;;
8399;SDS011;4237;47.030;15.396;2023-07-30T06:50:33;1.57;;;1.47;;
8399;SDS011;4237;47.030;15.396;2023-07-30T06:53:01;3.87;;;1.60;;
8399;SDS011;4237;47.030;15.396;2023-07-30T06:55:29;1.13;;;1.10;;
8399;SDS011;4237;47.030;15.396;2023-07-30T06:57:57;2.07;;;1.70;;
8399;SDS011;4237;47.030;15.396;2023-07-30T07:00:25;1.80;;;1.50;;
8399;SDS011;4237;47.030;15.396;2023-07-30T07:02:54;1.53;;;1.43;;
8399;SDS011;4237;47.030;15.396;2023-07-30T07:05:22;1.50;;;1.40;;
8399;SDS011;4237;47.030;15.396;2023-07-30T07:07:50;2.07;;;1.20;;
8399;SDS011;4237;47.030;15.396;2023-07-30T07:10:19;1.20;;;1.10;;
8399;SDS011;4237;47.030;15.396;2023-07-30T07:12:47;1.40;;;1.10;;
8399;SDS011;4237;47.030;15.396;2023-07-30T07:15:15;1.33;;;1.23;;
8399;SDS011;4237;47.030;15.396;2023-07-30T07:17:44;1.40;;;1.30;;
8399;SDS011;4237;47.030;15.396;2023-07-30T07:20:12;3.23;;;1.10;;
8399;SDS011;4237;47.030;15.396;2023-07-30T07:22:40;1.50;;;1.00;;
8399;SDS011;4237;47.030;15.396;2023-07-30T07:25:08;1.63;;;0.93;;
8399;SDS011;4237;47.030;15.396;2023-07-30T07:27:37;2.00;;;1.30;;
8399;SDS011;4237;47.030;15.396;2023-07-30T07:30:06;1.10;;;1.00;;
8399;SDS011;4237;47.030;15.396;2023-07-30T07:32:34;1.10;;;1.00;;
8399;SDS011;4237;47.030;15.396;2023-07-30T07:35:04;2.07;;;1.00;;
8399;SDS011;4237;47.030;15.396;2023-07-30T07:37:33;1.30;;;1.20;;
8399;SDS011;4237;47.030;15.396;2023-07-30T07:40:01;1.40;;;1.30;;
8399;SDS011;4237;47.030;15.396;2023-07-30T07:42:30;1.37;;;1.10;;
8399;SDS011;4237;47.030;15.396;2023-07-30T07:44:58;2.67;;;1.33;;
8399;SDS011;4237;47.030;15.396;2023-07-30T07:47:27;1.90;;;1.00;;
8399;SDS011;4237;47.030;15.396;2023-07-30T07:49:55;1.80;;;0.90;;
8399;SDS011;4237;47.030;15.396;2023-07-30T07:52:23;0.90;;;0.78;;
8399;SDS011;4237;47.030;15.396;2023-07-30T07:54:51;1.32;;;1.10;;
8399;SDS011;4237;47.030;15.396;2023-07-30T07:57:19;1.25;;;1.10;;
8399;SDS011;4237;47.030;15.396;2023-07-30T07:59:47;1.22;;;1.00;;
8399;SDS011;4237;47.030;15.396;2023-07-30T08:02:16;2.83;;;1.00;;
8399;SDS011;4237;47.030;15.396;2023-07-30T08:04:45;1.67;;;0.85;;
8399;SDS011;4237;47.030;15.396;2023-07-30T08:07:13;1.25;;;0.98;;
8399;SDS011;4237;47.030;15.396;2023-07-30T08:09:41;0.80;;;0.80;;
8399;SDS011;4237;47.030;15.396;2023-07-30T08:12:09;1.50;;;1.05;;
8399;SDS011;4237;47.030;15.396;2023-07-30T08:14:37;1.62;;;1.00;;
8399;SDS011;4237;47.030;15.396;2023-07-30T08:17:06;3.42;;;1.05;;
8399;SDS011;4237;47.030;15.396;2023-07-30T08:19:34;1.00;;;1.00;;
8399;SDS011;4237;47.030;15.396;2023-07-30T08:22:02;0.80;;;0.80;;
8399;SDS011;4237;47.030;15.396;2023-07-30T08:24:31;1.87;;;1.05;;
8399;SDS011;4237;47.030;15.396;2023-07-30T08:26:59;2.37;;;0.98;;
8399;SDS011;4237;47.030;15.396;2023-07-30T08:29:27;0.95;;;0.90;;
8399;SDS011;4237;47.030;15.396;2023-07-30T08:31:55;1.82;;;0.90;;
8399;SDS011;4237;47.030;15.396;2023-07-30T08:34:23;1.15;;;1.05;;
8399;SDS011;4237;47.030;15.396;2023-07-30T08:36:52;1.25;;;1.07;;
8399;SDS011;4237;47.030;15.396;2023-07-30T08:39:20;0.98;;;0.98;;
8399;SDS011;4237;47.030;15.396;2023-07-30T08:41:48;1.12;;;1.07;;
8399;SDS011;4237;47.030;15.396;2023-07-30T08:44:16;1.22;;;1.10;;
8399;SDS011;4237;47.030;15.396;2023-07-30T08:46:44;1.30;;;1.02;;
8399;SDS011;4237;47.030;15.396;2023-07-30T08:49:13;1.35;;;0.95;;
8399;SDS011;4237;47.030;15.396;2023-07-30T08:51:41;1.17;;;1.00;;
8399;SDS011;4237;47.030;15.396;2023-07-30T08:54:10;0.85;;;0.85;;
8399;SDS011;4237;47.030;15.396;2023-07-30T08:56:40;3.20;;;1.30;;
8399;SDS011;4237;47.030;15.396;2023-07-30T08:59:09;1.22;;;1.10;;
8399;SDS011;4237;47.030;15.396;2023-07-30T09:01:38;1.12;;;1.07;;
8399;SDS011;4237;47.030;15.396;2023-07-30T09:04:07;1.87;;;0.98;;
8399;SDS011;4237;47.030;15.396;2023-07-30T09:06:36;1.22;;;1.12;;
8399;SDS011;4237;47.030;15.396;2023-07-30T09:09:06;1.65;;;1.10;;
8399;SDS011;4237;47.030;15.396;2023-07-30T09:11:35;0.98;;;0.93;;
8399;SDS011;4237;47.030;15.396;2023-07-30T09:14:05;1.32;;;1.20;;
8399;SDS011;4237;47.030;15.396;2023-07-30T09:16:33;2.80;;;1.00;;
8399;SDS011;4237;47.030;15.396;2023-07-30T09:19:01;1.32;;;0.80;;
8399;SDS011;4237;47.030;15.396;2023-07-30T09:21:31;1.42;;;1.17;;
8399;SDS011;4237;47.030;15.396;2023-07-30T09:24:03;0.75;;;0.75;;
8399;SDS011;4237;47.030;15.396;2023-07-30T09:26:44;1.20;;;1.10;;
8399;SDS011;4237;47.030;15.396;2023-07-30T09:29:12;0.80;;;0.80;;
8399;SDS011;4237;47.030;15.396;2023-07-30T09:31:47;1.05;;;1.00;;
8399;SDS011;4237;47.030;15.396;2023-07-30T09:34:18;1.00;;;1.00;;
8399;SDS011;4237;47.030;15.396;2023-07-30T09:36:47;1.00;;;0.80;;
8399;SDS011;4237;47.030;15.396;2023-07-30T09:39:16;0.70;;;0.70;;
8399;SDS011;4237;47.030;15.396;2023-07-30T09:41:45;1.10;;;0.80;;
8399;SDS011;4237;47.030;15.396;2023-07-30T09:44:16;2.42;;;0.82;;
8399;SDS011;4237;47.030;15.396;2023-07-30T09:46:44;0.98;;;0.98;;
8399;SDS011;4237;47.030;15.396;2023-07-30T09:49:12;0.85;;;0.85;;
8399;SDS011;4237;47.030;15.396;2023-07-30T09:51:40;0.70;;;0.70;;
8399;SDS011;4237;47.030;15.396;2023-07-30T09:54:12;0.75;;;0.70;;
8399;SDS011;4237;47.030;15.396;2023-07-30T09:56:41;1.15;;;0.95;;
8399;SDS011;4237;47.030;15.396;2023-07-30T09:59:10;0.98;;;0.98;;
8399;SDS011;4237;47.030;15.396;2023-07-30T10:01:41;1.90;;;0.98;;
8399;SDS011;4237;47.030;15.396;2023-07-30T10:04:08;1.40;;;1.07;;
8399;SDS011;4237;47.030;15.396;2023-07-30T10:06:42;0.62;;;0.62;;
8399;SDS011;4237;47.030;15.396;2023-07-30T10:09:06;0.70;;;0.70;;
8399;SDS011;4237;47.030;15.396;2023-07-30T10:11:35;0.57;;;0.57;;
8399;SDS011;4237;47.030;15.396;2023-07-30T10:14:04;0.80;;;0.68;;
8399;SDS011;4237;47.030;15.396;2023-07-30T10:16:32;3.45;;;1.40;;
8399;SDS011;4237;47.030;15.396;2023-07-30T10:19:01;0.75;;;0.65;;
8399;SDS011;4237;47.030;15.396;2023-07-30T10:21:31;0.90;;;0.90;;
8399;SDS011;4237;47.030;15.396;2023-07-30T10:24:00;4.37;;;0.70;;
8399;SDS011;4237;47.030;15.396;2023-07-30T10:26:30;0.57;;;0.57;;
8399;SDS011;4237;47.030;15.396;2023-07-30T10:29:11;0.75;;;0.72;;
8399;SDS011;4237;47.030;15.396;2023-07-30T10:31:40;0.78;;;0.78;;
8399;SDS011;4237;47.030;15.396;2023-07-30T10:34:09;0.68;;;0.68;;
8399;SDS011;4237;47.030;15.396;2023-07-30T10:36:44;0.85;;;0.60;;
8399;SDS011;4237;47.030;15.396;2023-07-30T10:39:17;0.85;;;0.80;;
8399;SDS011;4237;47.030;15.396;2023-07-30T10:41:46;1.32;;;0.80;;
8399;SDS011;4237;47.030;15.396;2023-07-30T10:46:48;0.50;;;0.50;;
8399;SDS011;4237;47.030;15.396;2023-07-30T10:49:16;0.68;;;0.62;;
8399;SDS011;4237;47.030;15.396;2023-07-30T10:51:44;0.95;;;0.90;;
8399;SDS011;4237;47.030;15.396;2023-07-30T10:54:12;0.60;;;0.60;;
8399;SDS011;4237;47.030;15.396;2023-07-30T10:56:42;0.65;;;0.65;;
8399;SDS011;4237;47.030;15.396;2023-07-30T10:59:12;0.70;;;0.70;;
8399;SDS011;4237;47.030;15.396;2023-07-30T11:01:41;0.90;;;0.90;;
8399;SDS011;4237;47.030;15.396;2023-07-30T11:04:16;1.10;;;0.50;;
8399;SDS011;4237;47.030;15.396;2023-07-30T11:06:46;0.70;;;0.70;;
8399;SDS011;4237;47.030;15.396;2023-07-30T11:09:22;0.55;;;0.45;;
8399;SDS011;4237;47.030;15.396;2023-07-30T11:11:51;0.93;;;0.70;;
8399;SDS011;4237;47.030;15.396;2023-07-30T11:14:21;1.12;;;0.55;;
8399;SDS011;4237;47.030;15.396;2023-07-30T11:16:50;1.07;;;0.65;;
8399;SDS011;4237;47.030;15.396;2023-07-30T11:19:19;1.75;;;0.53;;
8399;SDS011;4237;47.030;15.396;2023-07-30T11:21:48;0.78;;;0.70;;
8399;SDS011;4237;47.030;15.396;2023-07-30T11:24:16;0.72;;;0.60;;
8399;SDS011;4237;47.030;15.396;2023-07-30T11:26:45;0.70;;;0.70;;
8399;SDS011;4237;47.030;15.396;2023-07-30T11:29:18;0.68;;;0.60;;
8399;SDS011;4237;47.030;15.396;2023-07-30T11:31:47;1.30;;;0.72;;
8399;SDS011;4237;47.030;15.396;2023-07-30T11:34:15;0.60;;;0.60;;
8399;SDS011;4237;47.030;15.396;2023-07-30T11:36:45;1.12;;;0.60;;
8399;SDS011;4237;47.030;15.396;2023-07-30T11:39:13;0.95;;;0.80;;
8399;SDS011;4237;47.030;15.396;2023-07-30T11:41:42;0.50;;;0.50;;
8399;SDS011;4237;47.030;15.396;2023-07-30T11:44:28;0.85;;;0.57;;
8399;SDS011;4237;47.030;15.396;2023-07-30T11:46:42;0.55;;;0.55;;
8399;SDS011;4237;47.030;15.396;2023-07-30T11:49:11;1.87;;;0.85;;
8399;SDS011;4237;47.030;15.396;2023-07-30T11:51:40;0.62;;;0.62;;
8399;SDS011;4237;47.030;15.396;2023-07-30T11:54:18;0.65;;;0.60;;
8399;SDS011;4237;47.030;15.396;2023-07-30T11:56:38;1.62;;;0.98;;
8399;SDS011;4237;47.030;15.396;2023-07-30T11:59:08;0.68;;;0.68;;
8399;SDS011;4237;47.030;15.396;2023-07-30T12:01:36;0.70;;;0.70;;
8399;SDS011;4237;47.030;15.396;2023-07-30T12:04:05;0.90;;;0.78;;
8399;SDS011;4237;47.030;15.396;2023-07-30T12:06:44;0.55;;;0.55;;
8399;SDS011;4237;47.030;15.396;2023-07-30T12:09:12;0.80;;;0.72;;
8399;SDS011;4237;47.030;15.396;2023-07-30T12:12:00;0.65;;;0.65;;
8399;SDS011;4237;47.030;15.396;2023-07-30T12:14:13;0.93;;;0.90;;
8399;SDS011;4237;47.030;15.396;2023-07-30T12:16:42;0.93;;;0.80;;
8399;SDS011;4237;47.030;15.396;2023-07-30T12:19:10;0.53;;;0.53;;
8399;SDS011;4237;47.030;15.396;2023-07-30T12:21:38;0.90;;;0.90;;
8399;SDS011;4237;47.030;15.396;2023-07-30T12:24:07;0.78;;;0.78;;
8399;SDS011;4237;47.030;15.396;2023-07-30T12:26:35;0.70;;;0.70;;
8399;SDS011;4237;47.030;15.396;2023-07-30T12:29:03;0.72;;;0.55;;
8399;SDS011;4237;47.030;15.396;2023-07-30T12:31:32;0.70;;;0.70;;
8399;SDS011;4237;47.030;15.396;2023-07-30T12:34:00;0.60;;;0.53;;
8399;SDS011;4237;47.030;15.396;2023-07-30T12:36:28;1.07;;;0.70;;
8399;SDS011;4237;47.030;15.396;2023-07-30T12:38:56;0.78;;;0.78;;
8399;SDS011;4237;47.030;15.396;2023-07-30T12:41:24;0.53;;;0.53;;
8399;SDS011;4237;47.030;15.396;2023-07-30T12:43:56;0.72;;;0.72;;
8399;SDS011;4237;47.030;15.396;2023-07-30T12:46:24;0.72;;;0.72;;
8399;SDS011;4237;47.030;15.396;2023-07-30T12:48:54;0.80;;;0.80;;
8399;SDS011;4237;47.030;15.396;2023-07-30T12:51:22;1.12;;;0.82;;
8399;SDS011;4237;47.030;15.396;2023-07-30T12:53:51;1.25;;;0.65;;
8399;SDS011;4237;47.030;15.396;2023-07-30T12:56:19;0.45;;;0.45;;
8399;SDS011;4237;47.030;15.396;2023-07-30T12:58:47;0.68;;;0.68;;
8399;SDS011;4237;47.030;15.396;2023-07-30T13:01:15;0.82;;;0.82;;
8399;SDS011;4237;47.030;15.396;2023-07-30T13:03:44;0.80;;;0.80;;
8399;SDS011;4237;47.030;15.396;2023-07-30T13:06:14;0.60;;;0.60;;
8399;SDS011;4237;47.030;15.396;2023-07-30T13:08:43;0.70;;;0.70;;
8399;SDS011;4237;47.030;15.396;2023-07-30T13:11:12;0.72;;;0.72;;
8399;SDS011;4237;47.030;15.396;2023-07-30T13:13:41;0.60;;;0.53;;
8399;SDS011;4237;47.030;15.396;2023-07-30T13:16:10;0.80;;;0.80;;
8399;SDS011;4237;47.030;15.396;2023-07-30T13:18:39;1.32;;;0.62;;
8399;SDS011;4237;47.030;15.396;2023-07-30T13:21:09;0.80;;;0.80;;
8399;SDS011;4237;47.030;15.396;2023-07-30T13:23:37;0.70;;;0.70;;
8399;SDS011;4237;47.030;15.396;2023-07-30T13:26:06;0.72;;;0.72;;
8399;SDS011;4237;47.030;15.396;2023-07-30T13:28:35;1.90;;;0.80;;
8399;SDS011;4237;47.030;15.396;2023-07-30T13:31:04;0.70;;;0.70;;
8399;SDS011;4237;47.030;15.396;2023-07-30T13:33:33;1.95;;;0.88;;
8399;SDS011;4237;47.030;15.396;2023-07-30T13:36:02;1.32;;;0.90;;
8399;SDS011;4237;47.030;15.396;2023-07-30T13:38:32;0.78;;;0.78;;
8399;SDS011;4237;47.030;15.396;2023-07-30T13:41:01;2.15;;;0.70;;
8399;SDS011;4237;47.030;15.396;2023-07-30T13:43:29;0.88;;;0.65;;
8399;SDS011;4237;47.030;15.396;2023-07-30T13:45:58;0.70;;;0.70;;
8399;SDS011;4237;47.030;15.396;2023-07-30T13:48:28;0.75;;;0.65;;
8399;SDS011;4237;47.030;15.396;2023-07-30T13:50:56;0.82;;;0.75;;
8399;SDS011;4237;47.030;15.396;2023-07-30T13:53:25;0.80;;;0.75;;
8399;SDS011;4237;47.030;15.396;2023-07-30T13:55:54;1.15;;;1.00;;
8399;SDS011;4237;47.030;15.396;2023-07-30T13:58:23;0.65;;;0.65;;
8399;SDS011;4237;47.030;15.396;2023-07-30T14:00:53;1.27;;;1.17;;
8399;SDS011;4237;47.030;15.396;2023-07-30T14:03:22;0.70;;;0.70;;
8399;SDS011;4237;47.030;15.396;2023-07-30T14:05:51;0.78;;;0.78;;
8399;SDS011;4237;47.030;15.396;2023-07-30T14:08:19;1.80;;;0.98;;
8399;SDS011;4237;47.030;15.396;2023-07-30T14:10:48;0.60;;;0.60;;
8399;SDS011;4237;47.030;15.396;2023-07-30T14:13:17;1.00;;;0.88;;
8399;SDS011;4237;47.030;15.396;2023-07-30T14:15:45;0.60;;;0.60;;
8399;SDS011;4237;47.030;15.396;2023-07-30T14:18:14;1.27;;;0.72;;
8399;SDS011;4237;47.030;15.396;2023-07-30T14:20:43;0.88;;;0.88;;
8399;SDS011;4237;47.030;15.396;2023-07-30T14:23:11;0.90;;;0.90;;
8399;SDS011;4237;47.030;15.396;2023-07-30T14:25:40;1.35;;;0.80;;
8399;SDS011;4237;47.030;15.396;2023-07-30T14:28:08;0.80;;;0.80;;
8399;SDS011;4237;47.030;15.396;2023-07-30T14:30:36;0.80;;;0.80;;
8399;SDS011;4237;47.030;15.396;2023-07-30T14:33:06;0.75;;;0.75;;
8399;SDS011;4237;47.030;15.396;2023-07-30T14:35:35;0.90;;;0.90;;
8399;SDS011;4237;47.030;15.396;2023-07-30T14:38:05;0.70;;;0.70;;
8399;SDS011;4237;47.030;15.396;2023-07-30T14:40:33;1.62;;;0.80;;
8399;SDS011;4237;47.030;15.396;2023-07-30T14:43:02;1.52;;;0.80;;
8399;SDS011;4237;47.030;15.396;2023-07-30T14:45:30;1.65;;;0.78;;
8399;SDS011;4237;47.030;15.396;2023-07-30T14:47:58;0.93;;;0.93;;
8399;SDS011;4237;47.030;15.396;2023-07-30T14:50:28;0.98;;;0.78;;
8399;SDS011;4237;47.030;15.396;2023-07-30T14:52:56;0.65;;;0.62;;
8399;SDS011;4237;47.030;15.396;2023-07-30T14:55:24;0.85;;;0.85;;
8399;SDS011;4237;47.030;15.396;2023-07-30T14:57:53;2.20;;;0.78;;
8399;SDS011;4237;47.030;15.396;2023-07-30T15:00:21;0.98;;;0.65;;
8399;SDS011;4237;47.030;15.396;2023-07-30T15:02:50;1.27;;;0.80;;
8399;SDS011;4237;47.030;15.396;2023-07-30T15:05:19;0.93;;;0.80;;
8399;SDS011;4237;47.030;15.396;2023-07-30T15:07:47;0.82;;;0.70;;
8399;SDS011;4237;47.030;15.396;2023-07-30T15:10:15;0.80;;;0.80;;
8399;SDS011;4237;47.030;15.396;2023-07-30T15:12:44;1.07;;;0.80;;
8399;SDS011;4237;47.030;15.396;2023-07-30T15:15:13;1.30;;;1.20;;